createdAt,value
2023-03-12T00:02:27.986Z,8.33
2023-03-12T00:04:56.685Z,6.60
2023-03-12T00:07:24.730Z,9.27
2023-03-12T00:09:52.587Z,9.13
2023-03-12T00:12:20.425Z,9.13
2023-03-12T00:14:48.316Z,10.50
2023-03-12T00:17:17.583Z,5.97
2023-03-12T00:19:46.247Z,9.93
2023-03-12T00:22:16.702Z,12.40
2023-03-12T00:24:44.545Z,10.67
2023-03-12T00:27:12.376Z,9.97
2023-03-12T00:29:40.181Z,13.20
2023-03-12T00:32:08.906Z,9.90
2023-03-12T00:34:38.090Z,11.90
2023-03-12T00:37:06.191Z,15.57
2023-03-12T00:39:34.072Z,10.10
2023-03-12T00:42:02.185Z,11.20
2023-03-12T00:44:30.054Z,13.43
2023-03-12T00:46:57.896Z,13.07
2023-03-12T00:49:25.738Z,11.80
2023-03-12T00:51:56.076Z,17.37
2023-03-12T00:54:24.392Z,10.57
2023-03-12T00:56:52.163Z,13.93
2023-03-12T00:59:20.048Z,16.77
2023-03-12T01:01:47.917Z,15.97
2023-03-12T01:04:17.726Z,14.50
2023-03-12T01:06:45.975Z,15.27
2023-03-12T01:09:15.231Z,18.57
2023-03-12T01:11:43.111Z,14.50
2023-03-12T01:14:11.316Z,18.33
2023-03-12T01:16:39.282Z,18.80
2023-03-12T01:19:07.201Z,19.27
2023-03-12T01:21:35.181Z,17.77
2023-03-12T01:24:03.306Z,24.30
2023-03-12T01:26:32.582Z,27.03
2023-03-12T01:29:00.382Z,27.60
2023-03-12T01:31:28.513Z,24.97
2023-03-12T01:33:56.494Z,29.00
2023-03-12T01:36:27.056Z,26.30
2023-03-12T01:38:58.738Z,28.40
2023-03-12T01:41:28.717Z,22.17
2023-03-12T01:43:57.905Z,20.07
2023-03-12T01:46:35.366Z,18.10
2023-03-12T01:49:11.283Z,21.33
2023-03-12T01:51:42.252Z,21.40
2023-03-12T01:54:14.301Z,20.00
2023-03-12T01:56:43.779Z,20.23
2023-03-12T01:59:18.110Z,17.80
2023-03-12T02:01:46.701Z,28.80
2023-03-12T02:04:17.250Z,20.17
2023-03-12T02:06:50.298Z,24.33
2023-03-12T02:09:20.643Z,18.23
2023-03-12T02:11:50.324Z,12.70
2023-03-12T02:14:19.778Z,17.33
2023-03-12T02:16:48.083Z,11.73
2023-03-12T02:19:23.458Z,16.27
2023-03-12T02:21:51.862Z,16.03
2023-03-12T02:24:29.479Z,20.13
2023-03-12T02:26:59.330Z,15.10
2023-03-12T02:29:31.328Z,16.93
2023-03-12T02:32:02.627Z,12.87
2023-03-12T02:34:30.938Z,11.80
2023-03-12T02:36:58.970Z,14.70
2023-03-12T02:39:27.909Z,12.27
2023-03-12T02:41:58.771Z,8.70
2023-03-12T02:44:29.457Z,12.63
2023-03-12T02:47:00.201Z,9.40
2023-03-12T02:49:30.756Z,14.87
2023-03-12T02:52:01.559Z,11.23
2023-03-12T02:54:30.894Z,15.37
2023-03-12T02:57:00.135Z,12.27
2023-03-12T02:59:30.452Z,10.53
2023-03-12T03:02:02.176Z,18.73
2023-03-12T03:04:32.126Z,12.83
2023-03-12T03:07:00.162Z,11.77
2023-03-12T03:09:28.421Z,9.60
2023-03-12T03:11:56.422Z,10.57
2023-03-12T03:14:27.617Z,11.70
2023-03-12T03:16:56.055Z,12.43
2023-03-12T03:19:24.531Z,9.53
2023-03-12T03:21:52.427Z,12.13
2023-03-12T03:24:21.090Z,9.77
2023-03-12T03:26:48.941Z,13.70
2023-03-12T03:29:16.982Z,11.50
2023-03-12T03:31:46.621Z,10.33
2023-03-12T03:34:14.760Z,8.90
2023-03-12T03:36:42.620Z,14.93
2023-03-12T03:39:14.849Z,13.13
2023-03-12T03:41:43.045Z,11.57
2023-03-12T03:44:11.273Z,9.37
2023-03-12T03:46:40.458Z,15.20
2023-03-12T03:49:12.244Z,12.47
2023-03-12T03:51:42.871Z,15.70
2023-03-12T03:54:13.860Z,13.63
2023-03-12T03:56:43.352Z,9.50
2023-03-12T03:59:12.469Z,12.80
2023-03-12T04:01:41.910Z,15.20
2023-03-12T04:04:09.864Z,11.27
2023-03-12T04:06:39.158Z,12.30
2023-03-12T04:09:07.012Z,11.87
2023-03-12T04:11:36.786Z,11.33
2023-03-12T04:14:05.964Z,10.47
2023-03-12T04:16:35.235Z,14.60
2023-03-12T04:19:04.077Z,18.60
2023-03-12T04:21:32.156Z,11.70
2023-03-12T04:24:01.560Z,10.37
2023-03-12T04:26:33.393Z,8.20
2023-03-12T04:29:01.970Z,15.37
2023-03-12T04:31:30.091Z,10.17
2023-03-12T04:33:57.984Z,16.07
2023-03-12T04:36:26.808Z,11.30
2023-03-12T04:38:56.559Z,14.53
2023-03-12T04:41:30.273Z,12.13
2023-03-12T04:44:04.530Z,12.50
2023-03-12T04:46:34.777Z,16.40
2023-03-12T04:49:03.493Z,10.97
2023-03-12T04:51:33.342Z,11.20
2023-03-12T04:54:03.765Z,19.23
2023-03-12T04:56:33.790Z,9.17
2023-03-12T04:59:02.426Z,13.23
2023-03-12T05:01:33.182Z,15.70
2023-03-12T05:04:05.518Z,8.97
2023-03-12T05:06:33.972Z,11.67
2023-03-12T05:09:02.027Z,8.73
2023-03-12T05:11:35.449Z,12.10
2023-03-12T05:14:04.615Z,12.13
2023-03-12T05:16:32.548Z,11.17
2023-03-12T05:19:02.300Z,9.43
2023-03-12T05:21:31.098Z,12.33
2023-03-12T05:23:59.885Z,9.33
2023-03-12T05:26:31.561Z,11.47
2023-03-12T05:29:21.130Z,13.13
2023-03-12T05:31:49.907Z,12.33
2023-03-12T05:34:18.257Z,10.30
2023-03-12T05:36:46.871Z,8.27
2023-03-12T05:39:18.780Z,10.03
2023-03-12T05:41:47.278Z,11.03
2023-03-12T05:44:19.049Z,8.93
2023-03-12T05:46:53.810Z,9.20
2023-03-12T05:49:25.131Z,9.33
2023-03-12T05:51:54.215Z,10.20
2023-03-12T05:54:24.406Z,9.60
2023-03-12T05:56:53.578Z,13.30
2023-03-12T05:59:23.613Z,12.07
2023-03-12T06:01:54.960Z,10.67
2023-03-12T06:04:23.005Z,8.87
2023-03-12T06:06:52.572Z,11.70
2023-03-12T06:09:20.544Z,10.27
2023-03-12T06:11:48.320Z,10.93
2023-03-12T06:14:16.245Z,9.20
2023-03-12T06:16:44.868Z,13.73
2023-03-12T06:19:15.073Z,12.37
2023-03-12T06:21:45.539Z,11.40
2023-03-12T06:24:14.311Z,13.17
2023-03-12T06:26:49.677Z,12.80
2023-03-12T06:29:17.520Z,13.33
2023-03-12T06:31:45.502Z,14.53
2023-03-12T06:34:16.742Z,17.33
2023-03-12T06:36:44.658Z,17.97
2023-03-12T06:39:12.461Z,20.30
2023-03-12T06:41:41.517Z,21.77
2023-03-12T06:44:09.403Z,16.97
2023-03-12T06:46:37.295Z,15.23
2023-03-12T06:49:05.664Z,10.83
2023-03-12T06:51:34.909Z,11.53
2023-03-12T06:54:02.879Z,11.93
2023-03-12T06:56:31.921Z,20.90
2023-03-12T06:59:00.138Z,14.33
2023-03-12T07:01:28.329Z,11.43
2023-03-12T07:03:56.120Z,10.37
2023-03-12T07:06:25.094Z,9.60
2023-03-12T07:08:54.551Z,12.50
2023-03-12T07:11:22.621Z,8.70
2023-03-12T07:13:51.590Z,13.00
2023-03-12T07:16:19.656Z,8.63
2023-03-12T07:18:47.630Z,8.53
2023-03-12T07:21:16.659Z,15.27
2023-03-12T07:23:44.656Z,8.60
2023-03-12T07:26:13.829Z,8.33
2023-03-12T07:28:41.722Z,9.40
2023-03-12T07:31:09.950Z,9.67
2023-03-12T07:33:39.120Z,12.00
2023-03-12T07:36:08.587Z,11.77
2023-03-12T07:38:36.456Z,8.33
2023-03-12T07:41:04.455Z,10.93
2023-03-12T07:43:33.708Z,10.33
2023-03-12T07:46:01.513Z,15.27
2023-03-12T07:48:29.492Z,11.37
2023-03-12T07:50:57.354Z,12.80
2023-03-12T07:53:25.176Z,10.23
2023-03-12T07:55:53.156Z,8.07
2023-03-12T07:58:21.229Z,10.20
2023-03-12T08:00:50.725Z,9.67
2023-03-12T08:03:18.751Z,14.87
2023-03-12T08:05:46.714Z,14.60
2023-03-12T08:08:14.660Z,10.93
2023-03-12T08:10:42.503Z,9.63
2023-03-12T08:13:10.362Z,11.90
2023-03-12T08:15:38.205Z,11.70
2023-03-12T08:18:07.465Z,11.57
2023-03-12T08:20:35.373Z,18.27
2023-03-12T08:23:03.239Z,10.60
2023-03-12T08:25:31.062Z,14.37
2023-03-12T08:27:58.883Z,11.10
2023-03-12T08:30:29.153Z,10.77
2023-03-12T08:32:58.306Z,12.23
2023-03-12T08:35:27.595Z,18.07
2023-03-12T08:37:56.890Z,27.73
2023-03-12T08:40:24.960Z,23.37
2023-03-12T08:42:52.795Z,35.27
2023-03-12T08:45:20.717Z,20.17
2023-03-12T08:47:48.615Z,18.23
2023-03-12T08:50:17.089Z,54.83
2023-03-12T08:52:46.401Z,201.40
2023-03-12T08:55:14.511Z,167.57
2023-03-12T08:57:42.454Z,274.80
2023-03-12T09:00:15.023Z,29.87
2023-03-12T09:02:44.771Z,38.00
2023-03-12T09:05:13.067Z,21.50
2023-03-12T09:07:41.552Z,28.23
2023-03-12T09:10:11.873Z,21.13
2023-03-12T09:12:39.776Z,21.90
2023-03-12T09:15:09.262Z,21.77
2023-03-12T09:17:37.165Z,22.03
2023-03-12T09:20:08.222Z,21.50
2023-03-12T09:22:37.148Z,15.73
2023-03-12T09:25:06.723Z,24.97
2023-03-12T09:27:39.955Z,17.43
2023-03-12T09:30:09.448Z,13.90
2023-03-12T09:32:37.444Z,19.70
2023-03-12T09:35:06.499Z,21.40
2023-03-12T09:37:35.504Z,17.93
2023-03-12T09:40:05.862Z,16.33
2023-03-12T09:42:41.541Z,14.03
2023-03-12T09:45:16.752Z,15.00
2023-03-12T09:47:49.952Z,15.43
2023-03-12T09:50:26.274Z,16.43
2023-03-12T09:52:59.265Z,12.97
2023-03-12T09:55:29.099Z,11.07
2023-03-12T09:57:59.314Z,14.83
2023-03-12T10:00:32.729Z,13.77
2023-03-12T10:03:11.976Z,13.33
2023-03-12T10:05:46.953Z,14.20
2023-03-12T10:08:26.623Z,14.53
2023-03-12T10:11:04.378Z,14.60
2023-03-12T10:13:48.531Z,11.93
2023-03-12T10:16:28.788Z,20.47
2023-03-12T10:19:14.576Z,10.93
2023-03-12T10:21:50.680Z,9.00
2023-03-12T10:24:31.587Z,11.53
2023-03-12T10:27:01.773Z,13.00
2023-03-12T10:29:34.072Z,13.27
2023-03-12T10:32:06.380Z,8.20
2023-03-12T10:34:40.327Z,6.30
2023-03-12T10:37:17.278Z,8.67
2023-03-12T10:39:45.919Z,7.30
2023-03-12T10:42:18.009Z,9.53
2023-03-12T10:44:52.095Z,6.50
2023-03-12T10:47:35.822Z,7.40
2023-03-12T10:50:22.848Z,12.40
2023-03-12T10:52:52.797Z,7.37
2023-03-12T10:55:26.319Z,3.93
2023-03-12T10:57:55.201Z,3.17
2023-03-12T11:00:27.172Z,3.33
2023-03-12T11:03:00.398Z,4.13
2023-03-12T11:05:31.630Z,3.97
2023-03-12T11:08:01.868Z,8.40
2023-03-12T11:10:42.934Z,4.30
2023-03-12T11:13:32.797Z,6.30
2023-03-12T11:16:03.681Z,3.63
2023-03-12T11:18:34.589Z,2.50
2023-03-12T11:21:19.648Z,1.83
2023-03-12T11:24:07.188Z,5.30
2023-03-12T11:26:49.639Z,2.67
2023-03-12T11:29:39.972Z,3.77
2023-03-12T11:32:18.406Z,3.80
2023-03-12T11:34:49.627Z,5.33
2023-03-12T11:37:28.220Z,1.30
2023-03-12T11:40:10.016Z,1.63
2023-03-12T11:42:54.029Z,4.23
2023-03-12T11:45:30.676Z,6.73
2023-03-12T11:48:11.326Z,5.10
2023-03-12T11:50:53.069Z,7.73
2023-03-12T11:54:07.778Z,5.93
2023-03-12T11:56:40.138Z,3.40
2023-03-12T11:59:24.408Z,3.03
2023-03-12T12:02:04.208Z,2.67
2023-03-12T12:04:51.004Z,3.20
2023-03-12T12:07:30.913Z,3.63
2023-03-12T12:10:07.120Z,9.47
2023-03-12T12:12:52.019Z,6.43
2023-03-12T12:15:30.213Z,5.73
2023-03-12T12:18:06.804Z,7.13
2023-03-12T12:20:45.307Z,6.73
2023-03-12T12:23:29.526Z,8.10
2023-03-12T12:26:09.450Z,5.33
2023-03-12T12:28:55.284Z,7.90
2023-03-12T12:31:35.274Z,8.57
2023-03-12T12:34:33.047Z,41.07
2023-03-12T12:37:18.430Z,12.77
2023-03-12T12:39:52.753Z,15.53
2023-03-12T12:42:25.706Z,10.33
2023-03-12T12:44:56.296Z,11.10
2023-03-12T12:47:38.049Z,6.23
2023-03-12T12:50:06.648Z,7.67
2023-03-12T12:52:36.063Z,7.70
2023-03-12T12:55:13.128Z,7.43
2023-03-12T12:57:45.921Z,7.40
2023-03-12T13:00:22.890Z,7.30
2023-03-12T13:02:51.539Z,6.47
2023-03-12T13:05:22.812Z,7.47
2023-03-12T13:07:52.075Z,6.00
2023-03-12T13:10:48.392Z,6.37
2023-03-12T13:13:27.192Z,4.83
2023-03-12T13:16:18.981Z,4.73
2023-03-12T13:18:58.494Z,4.93
2023-03-12T13:21:34.583Z,5.57
2023-03-12T13:24:18.367Z,5.13
2023-03-12T13:26:57.303Z,9.97
2023-03-12T13:29:39.636Z,3.80
2023-03-12T13:32:11.197Z,4.23
2023-03-12T13:34:48.130Z,2.63
2023-03-12T13:37:30.859Z,5.53
2023-03-12T13:40:07.941Z,5.87
2023-03-12T13:42:42.877Z,3.57
2023-03-12T13:45:26.464Z,6.50
2023-03-12T13:48:00.245Z,6.07
2023-03-12T13:50:29.316Z,6.20
2023-03-12T13:53:05.141Z,10.77
2023-03-12T13:55:36.286Z,7.13
2023-03-12T13:58:09.329Z,6.77
2023-03-12T14:00:41.430Z,5.93
2023-03-12T14:03:17.325Z,6.57
2023-03-12T14:05:51.535Z,4.83
2023-03-12T14:08:34.316Z,4.70
2023-03-12T14:11:22.184Z,5.33
2023-03-12T14:14:12.580Z,3.27
2023-03-12T14:16:43.487Z,5.33
2023-03-12T14:19:14.365Z,4.23
2023-03-12T14:21:45.346Z,4.13
2023-03-12T14:24:24.176Z,4.63
2023-03-12T14:26:55.074Z,5.17
2023-03-12T14:29:28.853Z,3.17
2023-03-12T14:32:00.121Z,3.40
2023-03-12T14:34:31.475Z,2.73
2023-03-12T14:37:05.862Z,2.67
2023-03-12T14:39:36.058Z,3.10
2023-03-12T14:42:07.872Z,1.63
2023-03-12T14:44:37.658Z,1.77
2023-03-12T14:47:10.034Z,7.23
2023-03-12T14:49:42.496Z,8.60
2023-03-12T14:52:13.033Z,2.67
2023-03-12T14:54:41.312Z,6.40
2023-03-12T14:57:20.309Z,3.23
2023-03-12T14:59:53.934Z,3.40
2023-03-12T15:02:22.428Z,10.97
2023-03-12T15:04:54.519Z,6.00
2023-03-12T15:07:27.078Z,8.73
2023-03-12T15:09:55.348Z,9.53
2023-03-12T15:12:26.733Z,3.93
2023-03-12T15:14:58.841Z,4.70
2023-03-12T15:17:30.096Z,6.50
2023-03-12T15:19:59.379Z,7.47
2023-03-12T15:22:28.859Z,6.77
2023-03-12T15:24:56.801Z,6.47
2023-03-12T15:27:35.438Z,11.57
2023-03-12T15:30:04.090Z,6.47
2023-03-12T15:32:32.111Z,7.00
2023-03-12T15:35:00.648Z,6.17
2023-03-12T15:37:35.199Z,7.97
2023-03-12T15:40:06.492Z,10.53
2023-03-12T15:42:43.923Z,5.20
2023-03-12T15:45:20.396Z,7.17
2023-03-12T15:47:49.429Z,7.77
2023-03-12T15:50:23.110Z,13.63
2023-03-12T15:53:02.491Z,6.43
2023-03-12T15:55:31.671Z,7.43
2023-03-12T15:58:01.790Z,11.00
2023-03-12T16:00:30.944Z,8.93
2023-03-12T16:03:01.051Z,9.00
2023-03-12T16:05:33.034Z,6.03
2023-03-12T16:08:03.046Z,8.30
2023-03-12T16:10:40.314Z,10.83
2023-03-12T16:13:15.828Z,12.03
2023-03-12T16:15:45.727Z,8.53
2023-03-12T16:18:15.964Z,10.47
2023-03-12T16:20:44.281Z,6.93
2023-03-12T16:23:12.654Z,7.77
2023-03-12T16:25:43.073Z,6.13
2023-03-12T16:28:16.639Z,5.90
2023-03-12T16:30:44.680Z,9.47
2023-03-12T16:33:15.400Z,11.13
2023-03-12T16:35:43.514Z,10.33
2023-03-12T16:38:11.440Z,6.63
2023-03-12T16:40:42.033Z,18.53
2023-03-12T16:43:17.762Z,12.63
2023-03-12T16:45:47.396Z,7.07
2023-03-12T16:48:17.240Z,11.30
2023-03-12T16:50:48.826Z,14.63
2023-03-12T16:53:16.898Z,13.23
2023-03-12T16:55:48.838Z,9.70
2023-03-12T16:58:21.024Z,15.57
2023-03-12T17:00:49.510Z,17.03
2023-03-12T17:03:21.929Z,15.57
2023-03-12T17:05:49.752Z,10.83
2023-03-12T17:08:17.638Z,7.90
2023-03-12T17:10:45.644Z,14.70
2023-03-12T17:13:21.208Z,11.03
2023-03-12T17:15:50.428Z,9.43
2023-03-12T17:18:18.868Z,12.00
2023-03-12T17:20:47.257Z,9.37
2023-03-12T17:23:15.238Z,11.90
2023-03-12T17:25:44.613Z,6.37
2023-03-12T17:28:13.625Z,13.53
2023-03-12T17:30:43.221Z,10.47
2023-03-12T17:33:13.051Z,9.47
2023-03-12T17:35:41.605Z,7.93
2023-03-12T17:38:10.483Z,8.73
2023-03-12T17:40:41.484Z,8.73
2023-03-12T17:43:09.374Z,10.70
2023-03-12T17:45:37.691Z,11.57
2023-03-12T17:48:07.105Z,12.97
2023-03-12T17:50:34.964Z,13.97
2023-03-12T17:53:03.113Z,10.93
2023-03-12T17:55:31.032Z,13.73
2023-03-12T17:57:58.851Z,10.67
2023-03-12T18:00:26.696Z,8.30
2023-03-12T18:02:54.565Z,13.30
2023-03-12T18:05:23.858Z,12.27
2023-03-12T18:07:52.392Z,7.20
2023-03-12T18:10:20.658Z,9.50
2023-03-12T18:12:48.688Z,13.67
2023-03-12T18:15:17.089Z,12.67
2023-03-12T18:17:45.789Z,7.50
2023-03-12T18:20:17.886Z,13.83
2023-03-12T18:22:48.823Z,12.23
2023-03-12T18:25:16.773Z,9.97
2023-03-12T18:27:44.654Z,11.40
2023-03-12T18:30:13.683Z,10.73
2023-03-12T18:32:42.176Z,25.87
2023-03-12T18:35:10.475Z,18.47
2023-03-12T18:37:38.273Z,18.87
2023-03-12T18:40:08.780Z,12.90
2023-03-12T18:42:36.645Z,12.20
2023-03-12T18:45:05.383Z,14.07
2023-03-12T18:47:34.881Z,8.97
2023-03-12T18:50:02.874Z,10.13
2023-03-12T18:52:30.743Z,9.20
2023-03-12T18:54:59.365Z,13.17
2023-03-12T18:57:28.648Z,8.17
2023-03-12T18:59:56.630Z,8.27
2023-03-12T19:02:24.713Z,17.30
2023-03-12T19:04:55.508Z,10.93
2023-03-12T19:07:24.258Z,7.70
2023-03-12T19:09:52.096Z,9.03
2023-03-12T19:12:19.967Z,9.27
2023-03-12T19:14:49.281Z,9.97
2023-03-12T19:17:17.537Z,5.83
2023-03-12T19:19:45.419Z,9.73
2023-03-12T19:22:13.304Z,10.73
2023-03-12T19:24:43.097Z,10.07
2023-03-12T19:27:11.354Z,7.40
2023-03-12T19:29:39.232Z,16.30
2023-03-12T19:32:09.207Z,12.57
2023-03-12T19:34:37.202Z,12.00
2023-03-12T19:37:05.126Z,11.90
2023-03-12T19:39:32.967Z,15.70
2023-03-12T19:42:00.817Z,15.27
2023-03-12T19:44:28.637Z,10.40
2023-03-12T19:46:56.499Z,13.03
2023-03-12T19:49:25.881Z,9.17
2023-03-12T19:51:53.753Z,8.60
2023-03-12T19:54:21.573Z,11.23
2023-03-12T19:56:49.418Z,9.97
2023-03-12T19:59:17.532Z,12.30
2023-03-12T20:01:45.407Z,13.37
2023-03-12T20:04:13.543Z,14.50
2023-03-12T20:06:42.954Z,11.93
2023-03-12T20:09:10.836Z,12.47
2023-03-12T20:11:38.701Z,10.40
2023-03-12T20:14:06.579Z,22.67
2023-03-12T20:16:34.554Z,25.30
2023-03-12T20:19:02.407Z,15.60
2023-03-12T20:21:30.859Z,15.93
2023-03-12T20:24:02.092Z,14.03
2023-03-12T20:26:30.036Z,13.50
2023-03-12T20:29:01.569Z,6.93
2023-03-12T20:31:29.517Z,15.67
2023-03-12T20:33:57.364Z,12.80
2023-03-12T20:36:25.200Z,12.50
2023-03-12T20:38:53.041Z,11.30
2023-03-12T20:41:22.420Z,14.00
2023-03-12T20:43:50.312Z,8.27
2023-03-12T20:46:19.010Z,9.50
2023-03-12T20:48:46.906Z,10.80
2023-03-12T20:51:15.015Z,9.60
2023-03-12T20:53:42.993Z,12.47
2023-03-12T20:56:11.605Z,17.00
2023-03-12T20:58:40.864Z,18.43
2023-03-12T21:01:08.987Z,20.77
2023-03-12T21:03:36.912Z,13.07
2023-03-12T21:06:05.157Z,13.53
2023-03-12T21:08:34.405Z,16.50
2023-03-12T21:11:08.030Z,14.63
2023-03-12T21:13:35.931Z,29.03
2023-03-12T21:16:08.253Z,17.27
2023-03-12T21:18:36.379Z,21.03
2023-03-12T21:21:05.561Z,17.47
2023-03-12T21:23:34.288Z,16.93
2023-03-12T21:26:07.183Z,10.23
2023-03-12T21:28:36.548Z,14.90
2023-03-12T21:31:10.532Z,13.07
2023-03-12T21:33:38.485Z,13.50
2023-03-12T21:36:07.753Z,11.83
2023-03-12T21:38:36.116Z,15.07
2023-03-12T21:41:06.432Z,7.70
2023-03-12T21:43:34.582Z,8.17
2023-03-12T21:46:06.458Z,14.03
2023-03-12T21:48:36.268Z,16.47
2023-03-12T21:51:04.690Z,16.17
2023-03-12T21:53:32.565Z,14.77
2023-03-12T21:56:02.109Z,12.20
2023-03-12T21:58:31.820Z,9.57
2023-03-12T22:01:08.382Z,12.30
2023-03-12T22:03:38.615Z,10.40
2023-03-12T22:06:07.139Z,11.57
2023-03-12T22:08:35.679Z,13.17
2023-03-12T22:11:03.891Z,10.30
2023-03-12T22:13:31.733Z,14.33
2023-03-12T22:16:01.343Z,15.50
2023-03-12T22:18:30.404Z,16.20
2023-03-12T22:21:01.695Z,18.13
2023-03-12T22:23:30.373Z,15.53
2023-03-12T22:26:01.557Z,15.57
2023-03-12T22:28:29.545Z,18.30
2023-03-12T22:31:01.602Z,12.77
2023-03-12T22:33:30.329Z,7.53
2023-03-12T22:35:59.519Z,16.57
2023-03-12T22:38:27.336Z,13.77
2023-03-12T22:40:55.995Z,11.43
2023-03-12T22:43:26.195Z,12.00
2023-03-12T22:45:54.383Z,16.30
2023-03-12T22:48:22.220Z,14.33
2023-03-12T22:50:54.339Z,15.47
2023-03-12T22:53:23.615Z,16.63
2023-03-12T22:55:58.485Z,24.67
2023-03-12T22:58:26.470Z,15.40
2023-03-12T23:00:59.551Z,16.40
2023-03-12T23:03:28.031Z,14.50
2023-03-12T23:05:56.079Z,16.47
2023-03-12T23:08:25.584Z,11.90
2023-03-12T23:10:54.764Z,14.93
2023-03-12T23:13:22.933Z,11.03
2023-03-12T23:15:51.029Z,17.97
2023-03-12T23:18:19.363Z,15.87
2023-03-12T23:20:47.575Z,16.83
2023-03-12T23:23:16.595Z,12.93
2023-03-12T23:25:53.424Z,9.67
2023-03-12T23:28:21.291Z,12.37
2023-03-12T23:30:55.010Z,9.13
2023-03-12T23:33:22.971Z,12.80
2023-03-12T23:36:01.455Z,11.87
2023-03-12T23:38:30.441Z,10.20
2023-03-12T23:41:03.383Z,10.10
2023-03-12T23:43:31.279Z,11.20
2023-03-12T23:46:00.654Z,12.37
2023-03-12T23:48:30.155Z,8.93
2023-03-12T23:51:05.701Z,11.10
2023-03-12T23:53:34.314Z,16.10
2023-03-12T23:56:05.870Z,16.33
2023-03-12T23:58:34.471Z,11.87
